Time;durP1;ratioP1;P1;durP2;ratioP2;P2;SDS_P1;SDS_P2;PMS_P1;PMS_P2;Temp;Humidity;BMP_temperature;BMP_pressure;BME280_temperature;BME280_humidity;BME280_pressure;Samples;Min_cycle;Max_cycle;Signal;HPM_P1;HPM_P2
2022/05/30 00:00:16;;;;;;;1.95;1.77;;;10.30;99.90;;;;;;5033806;28;20026;-78
2022/05/30 00:02:42;;;;;;;12.82;2.20;;;10.30;99.90;;;;;;5033832;28;20082;-78
2022/05/30 00:05:11;;;;;;;2.92;2.10;;;10.30;99.90;;;;;;5033783;28;20465;-78
2022/05/30 00:07:37;;;;;;;3.75;2.25;;;10.30;99.90;;;;;;5033526;28;20028;-78
2022/05/30 00:10:05;;;;;;;2.83;1.90;;;10.30;99.90;;;;;;5032572;28;20129;-77
2022/05/30 00:12:30;;;;;;;2.72;1.80;;;10.30;99.90;;;;;;5032489;28;20541;-78
2022/05/30 00:14:56;;;;;;;2.47;1.83;;;10.30;99.90;;;;;;5032847;28;20121;-78
2022/05/30 00:17:22;;;;;;;3.10;1.80;;;10.30;99.90;;;;;;5033883;28;20036;-77
2022/05/30 00:19:48;;;;;;;2.42;1.40;;;10.30;99.90;;;;;;5032363;28;20532;-77
2022/05/30 00:22:14;;;;;;;2.03;1.73;;;10.30;99.90;;;;;;5033388;28;20029;-77
2022/05/30 00:24:41;;;;;;;1.98;1.88;;;10.20;99.90;;;;;;5032284;28;20083;-78
2022/05/30 00:27:07;;;;;;;2.50;1.65;;;10.20;99.90;;;;;;5033847;28;20029;-77
2022/05/30 00:29:33;;;;;;;4.13;1.70;;;10.10;99.90;;;;;;5033545;28;20058;-78
2022/05/30 00:31:59;;;;;;;2.65;1.88;;;10.10;99.90;;;;;;5033623;28;20033;-77
2022/05/30 00:34:25;;;;;;;1.60;1.50;;;10.10;99.90;;;;;;5032299;28;20037;-78
2022/05/30 00:36:51;;;;;;;4.40;2.00;;;10.10;99.90;;;;;;5032178;28;20036;-78
2022/05/30 00:39:16;;;;;;;2.55;1.48;;;10.10;99.90;;;;;;5032164;28;20026;-78
2022/05/30 00:41:42;;;;;;;1.88;1.77;;;10.10;99.90;;;;;;5033546;28;20054;-78
2022/05/30 00:44:08;;;;;;;1.63;1.50;;;10.10;99.90;;;;;;5032461;28;20124;-78
2022/05/30 00:46:33;;;;;;;1.70;1.60;;;10.10;99.90;;;;;;5032173;28;20029;-78
2022/05/30 00:49:09;;;;;;;1.70;1.60;;;10.10;99.90;;;;;;5033388;28;20488;-78
2022/05/30 00:51:45;;;;;;;2.00;1.80;;;10.20;99.90;;;;;;5033431;28;20021;-78
2022/05/30 00:54:15;;;;;;;1.70;1.60;;;10.10;99.90;;;;;;5032079;28;20026;-78
2022/05/30 00:56:45;;;;;;;2.25;1.60;;;10.10;99.90;;;;;;5033148;28;20053;-78
2022/05/30 00:59:10;;;;;;;2.35;1.98;;;10.10;99.90;;;;;;5033309;28;20041;-78
2022/05/30 01:01:37;;;;;;;3.45;1.42;;;10.10;99.90;;;;;;5033053;28;20096;-77
2022/05/30 01:06:54;;;;;;;3.38;1.70;;;10.00;99.90;;;;;;5036844;28;20052;-78
2022/05/30 01:09:28;;;;;;;2.78;1.77;;;10.00;99.90;;;;;;5035193;28;20037;-77
2022/05/30 01:11:59;;;;;;;4.28;1.58;;;10.10;99.90;;;;;;5035710;28;20032;-78
2022/05/30 01:14:29;;;;;;;2.42;1.52;;;10.10;99.90;;;;;;5036383;28;20029;-77
2022/05/30 01:16:55;;;;;;;1.67;1.58;;;10.10;99.90;;;;;;5035131;28;20033;-77
2022/05/30 01:19:55;;;;;;;3.90;1.83;;;10.10;99.90;;;;;;5036583;28;20026;-77
2022/05/30 01:22:32;;;;;;;4.78;2.15;;;10.10;99.90;;;;;;5036660;28;20083;-77
2022/05/30 01:25:04;;;;;;;2.33;1.67;;;10.10;99.90;;;;;;5034991;28;20037;-77
2022/05/30 01:27:49;;;;;;;2.88;1.70;;;10.10;99.90;;;;;;5035281;28;20025;-77
2022/05/30 01:30:16;;;;;;;1.90;1.75;;;10.00;99.90;;;;;;5036128;28;20492;-77
2022/05/30 01:32:42;;;;;;;2.00;1.90;;;10.00;99.90;;;;;;5035539;28;20372;-78
2022/05/30 01:35:09;;;;;;;1.63;1.23;;;9.90;99.90;;;;;;5035044;28;20128;-78
2022/05/30 01:37:34;;;;;;;3.83;2.00;;;9.80;99.90;;;;;;5036045;28;20038;-77
2022/05/30 01:40:00;;;;;;;2.58;1.63;;;9.80;99.90;;;;;;5035076;28;20028;-78
2022/05/30 01:42:25;;;;;;;1.83;1.70;;;9.70;99.90;;;;;;5036278;28;20091;-77
2022/05/30 01:44:53;;;;;;;5.20;1.70;;;9.60;99.90;;;;;;5036308;28;20037;-78
2022/05/30 01:47:18;;;;;;;3.92;1.52;;;9.50;99.90;;;;;;5035130;28;20473;-78
2022/05/30 01:49:44;;;;;;;2.05;1.83;;;9.50;99.90;;;;;;5036321;28;20040;-78
2022/05/30 01:52:10;;;;;;;1.67;1.45;;;9.40;99.90;;;;;;5034886;28;20030;-78
2022/05/30 01:54:36;;;;;;;1.58;1.45;;;9.30;99.90;;;;;;5036219;28;20033;-78
2022/05/30 01:57:01;;;;;;;1.73;1.58;;;9.20;99.90;;;;;;5036110;28;20465;-78
2022/05/30 01:59:27;;;;;;;3.72;1.75;;;9.20;99.90;;;;;;5034676;28;20021;-78
2022/05/30 02:01:53;;;;;;;1.90;1.80;;;9.20;99.90;;;;;;5034604;28;20038;-78
2022/05/30 02:04:18;;;;;;;2.40;1.67;;;9.10;99.90;;;;;;5035868;28;20557;-77
2022/05/30 02:06:44;;;;;;;1.92;1.63;;;9.00;99.90;;;;;;5034788;28;20033;-77
2022/05/30 02:09:11;;;;;;;3.58;1.77;;;9.00;99.90;;;;;;5034729;28;20029;-77
2022/05/30 02:11:37;;;;;;;2.40;2.08;;;9.00;99.90;;;;;;5034636;28;20025;-77
2022/05/30 02:14:03;;;;;;;2.08;1.85;;;9.00;99.90;;;;;;5035738;28;20029;-77
2022/05/30 02:19:16;;;;;;;2.22;2.03;;;8.90;99.90;;;;;;5035450;28;20033;-77
2022/05/30 02:21:42;;;;;;;2.58;1.85;;;8.90;99.90;;;;;;5034465;28;20462;-77
2022/05/30 02:24:08;;;;;;;2.40;1.98;;;8.70;99.90;;;;;;5035544;28;20025;-77
2022/05/30 02:26:35;;;;;;;1.90;1.80;;;8.70;99.90;;;;;;5035531;28;20029;-77
2022/05/30 02:29:02;;;;;;;1.92;1.83;;;8.80;99.90;;;;;;5034163;28;20122;-77
2022/05/30 02:31:28;;;;;;;3.70;3.10;;;8.70;99.90;;;;;;5035879;28;20050;-78
2022/05/30 02:36:41;;;;;;;2.25;1.90;;;8.60;99.90;;;;;;5035438;28;20063;-77
2022/05/30 02:39:33;;;;;;;4.90;1.80;;;8.60;99.90;;;;;;5035502;28;20445;-78
2022/05/30 02:41:58;;;;;;;3.72;2.17;;;8.50;99.90;;;;;;5030143;28;20491;-77
2022/05/30 02:44:26;;;;;;;2.58;1.85;;;8.50;99.90;;;;;;5034992;28;20033;-78
2022/05/30 02:46:54;;;;;;;1.70;1.60;;;8.40;99.90;;;;;;5035379;28;20117;-78
2022/05/30 02:49:21;;;;;;;1.30;1.20;;;8.30;99.90;;;;;;5033854;28;20116;-78
2022/05/30 02:51:47;;;;;;;1.52;1.42;;;8.20;99.90;;;;;;5035187;28;20041;-78
2022/05/30 02:54:13;;;;;;;2.00;1.67;;;8.10;99.90;;;;;;5033598;28;20124;-78
2022/05/30 02:56:40;;;;;;;1.77;1.40;;;8.00;99.90;;;;;;5035078;28;20481;-78
2022/05/30 02:59:06;;;;;;;1.55;1.33;;;8.00;99.90;;;;;;5034735;28;20057;-78
2022/05/30 03:01:33;;;;;;;3.22;1.65;;;7.90;99.90;;;;;;5033720;28;20033;-78
2022/05/30 03:04:01;;;;;;;1.55;1.45;;;7.90;99.90;;;;;;5034763;28;20026;-77
2022/05/30 03:06:28;;;;;;;1.90;1.80;;;7.90;99.90;;;;;;5034990;28;20059;-78
2022/05/30 03:08:54;;;;;;;1.63;1.50;;;7.80;99.90;;;;;;5033830;28;20400;-78
2022/05/30 03:11:19;;;;;;;5.28;1.50;;;7.80;99.90;;;;;;5035054;28;20030;-77
2022/05/30 03:13:45;;;;;;;1.88;1.73;;;7.80;99.90;;;;;;5034547;28;20457;-77
2022/05/30 03:16:11;;;;;;;4.22;1.70;;;7.80;99.90;;;;;;5035033;28;20369;-77
2022/05/30 03:18:37;;;;;;;3.35;2.30;;;7.80;99.90;;;;;;5034945;28;20140;-77
2022/05/30 03:21:03;;;;;;;2.10;1.73;;;7.80;99.90;;;;;;5035525;28;20029;-77
2022/05/30 03:23:29;;;;;;;3.03;1.90;;;7.70;99.90;;;;;;5037781;28;20071;-78
2022/05/30 03:25:55;;;;;;;5.80;2.40;;;7.90;99.90;;;;;;5036088;28;20018;-77
2022/05/30 03:28:20;;;;;;;2.38;2.13;;;7.80;99.90;;;;;;5036401;28;20096;-78
2022/05/30 03:30:46;;;;;;;2.60;2.40;;;7.90;99.90;;;;;;5034653;28;20125;-77
2022/05/30 03:33:11;;;;;;;3.28;1.55;;;7.90;99.90;;;;;;5034584;28;20082;-78
2022/05/30 03:35:38;;;;;;;2.22;2.00;;;7.90;99.90;;;;;;5033117;28;20403;-78
2022/05/30 03:38:05;;;;;;;2.00;1.90;;;7.90;99.90;;;;;;5034486;28;20059;-78
2022/05/30 03:40:31;;;;;;;1.83;1.73;;;7.90;99.90;;;;;;5036484;28;20029;-78
2022/05/30 03:42:56;;;;;;;6.07;3.10;;;8.00;99.90;;;;;;5034684;28;20037;-78
2022/05/30 03:45:22;;;;;;;2.50;2.30;;;8.00;99.90;;;;;;5033308;28;20032;-78
2022/05/30 03:47:49;;;;;;;4.20;2.17;;;8.00;99.90;;;;;;5034727;28;20025;-78
2022/05/30 03:50:18;;;;;;;2.38;2.17;;;8.00;99.90;;;;;;5034214;28;20457;-78
2022/05/30 03:52:44;;;;;;;;;;;8.00;99.90;;;;;;5034719;28;20405;-78
2022/05/30 03:55:13;;;;;;;2.10;2.00;;;8.00;99.90;;;;;;5034014;28;19915;-78
2022/05/30 03:57:40;;;;;;;2.17;2.08;;;8.00;99.90;;;;;;5034077;28;20030;-78
2022/05/30 04:00:25;;;;;;;2.38;2.25;;;8.00;99.90;;;;;;5033283;28;20053;-78
2022/05/30 04:02:50;;;;;;;3.53;1.98;;;8.10;99.90;;;;;;5032975;28;20022;-78
2022/05/30 04:05:18;;;;;;;2.35;2.20;;;8.20;99.90;;;;;;5034171;28;20032;-78
2022/05/30 04:07:44;;;;;;;2.58;2.30;;;8.20;99.90;;;;;;5032830;28;20040;-77
2022/05/30 04:10:10;;;;;;;2.55;2.33;;;8.20;99.90;;;;;;5034272;28;20030;-78
2022/05/30 04:12:36;;;;;;;1.90;1.80;;;8.10;99.90;;;;;;5034142;28;20469;-77
2022/05/30 04:15:05;;;;;;;1.88;1.70;;;8.20;99.90;;;;;;5034506;28;20022;-76
2022/05/30 04:17:33;;;;;;;2.13;1.75;;;8.20;99.90;;;;;;5033160;28;20034;-76
2022/05/30 04:19:59;;;;;;;2.30;2.20;;;8.20;99.90;;;;;;5033596;28;20030;-75
2022/05/30 04:22:25;;;;;;;2.60;2.40;;;8.20;99.90;;;;;;5033947;28;20484;-77
2022/05/30 04:24:52;;;;;;;2.83;1.98;;;8.30;99.90;;;;;;5032898;28;20167;-76
2022/05/30 04:27:18;;;;;;;5.88;1.80;;;8.30;99.90;;;;;;5033757;28;20021;-76
2022/05/30 04:29:43;;;;;;;3.55;1.80;;;8.40;99.90;;;;;;5033520;28;20045;-75
2022/05/30 04:32:10;;;;;;;2.40;2.20;;;8.60;99.90;;;;;;5034257;28;20029;-76
2022/05/30 04:34:36;;;;;;;1.60;1.50;;;8.60;99.90;;;;;;5032812;28;20029;-75
2022/05/30 04:37:03;;;;;;;2.00;1.80;;;8.60;99.90;;;;;;5034591;28;20029;-75
2022/05/30 04:39:29;;;;;;;2.13;1.85;;;8.60;99.90;;;;;;5037947;28;20482;-76
2022/05/30 04:41:54;;;;;;;1.80;1.70;;;8.70;99.90;;;;;;5037752;28;20026;-76
2022/05/30 04:44:20;;;;;;;1.70;1.60;;;8.80;99.90;;;;;;5036589;28;20064;-76
2022/05/30 04:46:57;;;;;;;1.90;1.80;;;9.00;99.90;;;;;;5036601;28;20032;-75
2022/05/30 04:49:23;;;;;;;2.47;1.92;;;9.10;99.90;;;;;;5037889;28;20025;-75
2022/05/30 04:51:50;;;;;;;2.50;1.80;;;9.20;99.90;;;;;;5037793;28;20025;-76
2022/05/30 04:54:16;;;;;;;1.30;1.20;;;9.30;99.90;;;;;;5035753;28;20120;-76
2022/05/30 04:56:42;;;;;;;1.45;1.35;;;9.60;99.90;;;;;;5037613;28;20029;-76
2022/05/30 04:59:08;;;;;;;1.23;1.23;;;9.60;99.90;;;;;;5040032;28;20072;-76
2022/05/30 05:01:34;;;;;;;1.40;1.30;;;9.70;99.90;;;;;;5037563;28;20457;-76
2022/05/30 05:04:00;;;;;;;2.65;1.38;;;9.90;99.90;;;;;;5036473;28;20029;-76
2022/05/30 05:06:25;;;;;;;1.58;0.90;;;10.00;99.90;;;;;;5038102;28;20033;-76
2022/05/30 05:08:51;;;;;;;1.50;1.00;;;10.20;99.90;;;;;;5035604;28;20025;-76
2022/05/30 05:11:37;;;;;;;2.33;0.85;;;10.40;99.90;;;;;;5033703;28;20029;-76
2022/05/30 05:14:03;;;;;;;0.70;0.70;;;10.50;99.90;;;;;;5037968;28;20479;-75
2022/05/30 05:16:30;;;;;;;1.25;0.55;;;10.60;99.90;;;;;;5036890;28;20029;-76
2022/05/30 05:18:57;;;;;;;3.22;1.05;;;10.60;99.90;;;;;;5038687;28;20412;-75
2022/05/30 05:21:28;;;;;;;1.08;0.80;;;10.70;99.90;;;;;;5037707;28;20064;-76
2022/05/30 05:23:54;;;;;;;1.67;0.70;;;10.80;99.90;;;;;;5036978;28;20022;-76
2022/05/30 05:26:20;;;;;;;1.10;0.85;;;10.80;99.90;;;;;;5037777;28;20026;-76
2022/05/30 05:28:46;;;;;;;0.60;0.60;;;10.80;99.90;;;;;;5037054;28;20045;-76
2022/05/30 05:31:34;;;;;;;2.13;1.10;;;10.80;99.90;;;;;;5036469;28;20400;-76
2022/05/30 05:34:02;;;;;;;1.98;0.90;;;10.90;99.90;;;;;;5036772;28;20133;-76
2022/05/30 05:36:33;;;;;;;1.30;1.20;;;11.00;99.90;;;;;;5037330;28;20025;-76
2022/05/30 05:38:59;;;;;;;1.83;1.60;;;11.00;99.90;;;;;;5036775;28;20092;-76
2022/05/30 05:41:25;;;;;;;1.73;1.58;;;11.00;99.90;;;;;;5036763;28;20057;-76
2022/05/30 05:43:54;;;;;;;2.38;1.50;;;11.00;99.90;;;;;;5036751;28;20526;-76
2022/05/30 05:46:22;;;;;;;;;;;11.00;99.90;;;;;;5034431;28;20032;-75
2022/05/30 05:48:48;;;;;;;4.82;2.38;;;11.10;99.90;;;;;;5036121;28;19909;-75
2022/05/30 05:51:14;;;;;;;2.05;1.90;;;11.10;99.90;;;;;;5036593;28;20388;-76
2022/05/30 05:53:43;;;;;;;2.72;2.15;;;11.10;99.90;;;;;;5035857;28;20034;-76
2022/05/30 05:56:14;;;;;;;2.78;2.55;;;11.10;99.90;;;;;;5036708;28;20481;-76
2022/05/30 05:58:40;;;;;;;3.28;2.97;;;11.10;99.90;;;;;;5036280;28;20176;-76
2022/05/30 06:01:11;;;;;;;4.20;3.00;;;11.10;99.90;;;;;;5036095;28;20033;-76
2022/05/30 06:03:37;;;;;;;4.60;3.13;;;11.10;99.90;;;;;;5036765;28;20132;-76
2022/05/30 06:06:04;;;;;;;4.95;3.38;;;11.10;99.90;;;;;;5035645;28;20057;-76
2022/05/30 06:08:30;;;;;;;3.38;3.10;;;11.00;99.90;;;;;;5035444;28;20030;-76
2022/05/30 06:11:11;;;;;;;3.90;3.00;;;11.20;99.90;;;;;;5036000;28;20025;-76
2022/05/30 06:13:40;;;;;;;4.22;2.72;;;11.50;99.90;;;;;;5035657;28;20378;-76
2022/05/30 06:16:08;;;;;;;3.65;2.80;;;11.90;99.90;;;;;;5035000;28;20034;-76
2022/05/30 06:18:34;;;;;;;3.13;2.30;;;12.20;99.90;;;;;;5035195;28;20033;-76
2022/05/30 06:21:00;;;;;;;3.45;2.60;;;12.50;99.90;;;;;;5035540;28;20025;-76
2022/05/30 06:23:27;;;;;;;3.60;3.30;;;12.70;99.90;;;;;;5035254;28;20025;-76
2022/05/30 06:25:53;;;;;;;4.93;2.70;;;12.70;99.90;;;;;;5034245;28;20058;-76
2022/05/30 06:28:19;;;;;;;4.53;3.10;;;12.80;99.90;;;;;;5033874;28;20473;-76
2022/05/30 06:30:44;;;;;;;4.38;3.05;;;13.00;99.90;;;;;;5033593;28;20091;-76
2022/05/30 06:33:10;;;;;;;3.10;2.80;;;13.00;99.90;;;;;;5034969;28;20032;-76
2022/05/30 06:35:40;;;;;;;3.13;2.63;;;12.90;99.90;;;;;;5033608;28;20531;-76
2022/05/30 06:38:08;;;;;;;3.17;2.80;;;13.00;99.90;;;;;;5034994;28;20033;-76
2022/05/30 06:40:33;;;;;;;6.78;3.13;;;13.20;99.90;;;;;;5033468;28;20061;-76
2022/05/30 06:42:59;;;;;;;3.55;2.58;;;13.70;99.90;;;;;;5034978;28;20061;-76
2022/05/30 06:45:25;;;;;;;3.38;3.08;;;13.80;99.90;;;;;;5035006;28;20423;-76
2022/05/30 06:47:51;;;;;;;3.40;2.97;;;13.80;99.90;;;;;;5035083;28;20025;-76
2022/05/30 06:50:17;;;;;;;3.83;2.72;;;13.80;99.90;;;;;;5033399;28;20489;-76
2022/05/30 06:52:43;;;;;;;3.35;2.72;;;13.90;99.90;;;;;;5033083;28;20036;-76
2022/05/30 06:55:09;;;;;;;3.33;2.75;;;14.20;99.90;;;;;;5034225;28;20029;-76
2022/05/30 07:00:19;;;;;;;3.35;2.20;;;14.70;99.90;;;;;;5034092;28;20381;-76
2022/05/30 07:02:45;;;;;;;4.63;2.30;;;15.20;99.90;;;;;;5034430;28;20030;-76
2022/05/30 07:05:11;;;;;;;2.78;2.58;;;15.50;99.90;;;;;;5033037;28;20032;-76
2022/05/30 07:07:39;;;;;;;2.63;2.42;;;15.60;99.90;;;;;;5034726;28;20029;-76
2022/05/30 07:10:05;;;;;;;5.33;2.33;;;15.70;99.90;;;;;;5033196;28;20029;-76
2022/05/30 07:12:31;;;;;;;2.53;2.20;;;16.00;99.90;;;;;;5033033;28;20370;-76
2022/05/30 07:14:57;;;;;;;2.35;2.15;;;16.30;99.90;;;;;;5032792;28;20059;-74
2022/05/30 07:17:23;;;;;;;2.65;2.08;;;16.70;99.90;;;;;;5032915;28;20025;-76
2022/05/30 07:19:48;;;;;;;3.00;1.95;;;16.80;99.90;;;;;;5034322;28;20556;-76
2022/05/30 07:22:14;;;;;;;3.05;1.92;;;16.70;99.90;;;;;;5032868;28;20028;-76
2022/05/30 07:24:39;;;;;;;2.85;2.20;;;16.60;99.90;;;;;;5032792;28;20069;-76
2022/05/30 07:27:05;;;;;;;2.55;2.03;;;16.50;99.90;;;;;;5032740;28;20366;-76
2022/05/30 07:29:31;;;;;;;2.38;2.28;;;16.50;99.90;;;;;;5033647;28;20036;-76
2022/05/30 07:32:01;;;;;;;2.45;1.92;;;16.70;99.90;;;;;;5033206;28;20084;-76
2022/05/30 07:34:26;;;;;;;2.47;2.28;;;16.80;99.90;;;;;;5032611;28;20473;-76
2022/05/30 07:36:52;;;;;;;2.03;1.92;;;17.00;99.90;;;;;;5033060;28;20063;-77
2022/05/30 07:39:18;;;;;;;2.30;2.10;;;17.30;99.90;;;;;;5033545;28;20026;-76
2022/05/30 07:41:44;;;;;;;2.45;1.73;;;17.20;99.90;;;;;;5032639;28;20025;-76
2022/05/30 07:44:10;;;;;;;3.17;1.80;;;17.40;99.70;;;;;;5032757;28;20033;-76
2022/05/30 07:46:39;;;;;;;1.70;1.60;;;17.50;99.70;;;;;;5032583;28;20061;-74
2022/05/30 07:49:04;;;;;;;4.70;1.70;;;17.90;99.80;;;;;;5033069;28;20022;-76
2022/05/30 07:51:30;;;;;;;2.72;2.08;;;18.20;96.40;;;;;;5032473;28;20030;-76
2022/05/30 07:53:57;;;;;;;1.98;1.75;;;18.10;96.00;;;;;;5033267;28;20048;-76
2022/05/30 07:56:23;;;;;;;1.60;1.50;;;18.30;96.30;;;;;;5033365;28;20040;-75
2022/05/30 07:58:49;;;;;;;4.55;1.85;;;18.30;94.30;;;;;;5032327;28;20072;-76
2022/05/30 08:01:18;;;;;;;2.38;1.60;;;18.60;94.00;;;;;;5033662;28;20029;-76
2022/05/30 08:03:45;;;;;;;2.72;1.38;;;19.20;93.00;;;;;;5032319;28;20480;-76
2022/05/30 08:06:18;;;;;;;1.77;1.50;;;19.60;90.10;;;;;;5032537;28;20417;-76
2022/05/30 08:08:44;;;;;;;1.90;1.27;;;19.70;84.90;;;;;;5032473;28;20033;-76
2022/05/30 08:11:11;;;;;;;1.23;1.15;;;19.80;83.00;;;;;;5035975;28;20032;-76
2022/05/30 08:13:37;;;;;;;4.40;1.50;;;20.00;86.10;;;;;;5036274;28;20026;-76
2022/05/30 08:16:04;;;;;;;2.60;1.20;;;20.30;75.40;;;;;;5036157;28;20041;-77
2022/05/30 08:18:31;;;;;;;1.75;1.30;;;20.80;78.60;;;;;;5028826;28;20466;-77
2022/05/30 08:20:57;;;;;;;0.95;0.93;;;21.40;74.80;;;;;;5020173;28;20025;-78
2022/05/30 08:23:23;;;;;;;1.13;1.10;;;22.00;68.90;;;;;;5019186;28;20057;-77
2022/05/30 08:25:50;;;;;;;1.25;1.15;;;21.80;69.20;;;;;;5020162;28;20427;-77
2022/05/30 08:28:15;;;;;;;1.08;0.70;;;21.80;66.40;;;;;;5020574;28;20033;-78
2022/05/30 08:30:42;;;;;;;1.60;1.02;;;21.80;67.20;;;;;;5020691;28;20115;-78
2022/05/30 08:33:13;;;;;;;1.45;0.88;;;21.50;65.60;;;;;;5019619;28;20033;-77
2022/05/30 08:35:39;;;;;;;1.83;0.90;;;20.90;67.50;;;;;;5019900;28;20065;-77
2022/05/30 08:38:05;;;;;;;2.40;1.10;;;20.10;67.90;;;;;;5027373;28;20129;-76
2022/05/30 08:43:24;;;;;;;;;;;19.40;70.10;;;;;;5037407;28;20171;-74
2022/05/30 08:45:57;;;;;;;1.30;0.90;;;19.10;73.10;;;;;;5036112;28;20047;-76
2022/05/30 08:48:41;;;;;;;1.00;0.90;;;18.80;74.90;;;;;;5035809;28;20477;-74
2022/05/30 08:51:28;;;;;;;1.23;0.90;;;19.50;73.40;;;;;;5037126;28;20057;-76
2022/05/30 08:54:07;;;;;;;2.13;0.90;;;20.80;68.60;;;;;;5036774;28;20034;-76
2022/05/30 08:56:36;;;;;;;1.17;0.90;;;21.70;61.50;;;;;;5037800;28;20026;-76
2022/05/30 08:59:11;;;;;;;1.25;1.13;;;21.50;59.50;;;;;;5035390;28;20025;-77
2022/05/30 09:01:56;;;;;;;1.45;0.73;;;21.00;60.80;;;;;;5036626;28;20393;-77
2022/05/30 09:04:33;;;;;;;1.63;0.82;;;21.10;61.20;;;;;;5036334;28;20033;-77
2022/05/30 09:07:13;;;;;;;1.27;0.60;;;20.90;58.80;;;;;;5035429;28;20484;-77
2022/05/30 09:10:40;;;;;;;1.33;0.63;;;20.90;58.10;;;;;;5035888;28;20045;-77
2022/05/30 09:13:18;;;;;;;1.90;0.90;;;21.70;57.20;;;;;;4972478;28;20039;-77
2022/05/30 09:15:51;;;;;;;2.03;0.80;;;22.60;56.70;;;;;;5035284;28;20128;-77
2022/05/30 09:18:19;;;;;;;0.60;0.60;;;23.50;54.30;;;;;;5035322;28;20449;-76
2022/05/30 09:20:45;;;;;;;1.58;0.82;;;23.10;52.00;;;;;;5033755;28;20144;-76
2022/05/30 09:23:13;;;;;;;1.83;0.50;;;22.40;54.00;;;;;;5034320;28;20030;-75
2022/05/30 09:25:57;;;;;;;2.00;1.00;;;21.80;54.70;;;;;;5036260;28;20041;-75
2022/05/30 09:28:30;;;;;;;1.48;0.93;;;21.40;56.50;;;;;;5052252;28;20022;-75
2022/05/30 09:31:15;;;;;;;1.75;0.80;;;21.30;57.20;;;;;;5036540;28;20057;-75
2022/05/30 09:33:44;;;;;;;1.63;0.70;;;20.60;57.40;;;;;;5034822;28;20140;-76
2022/05/30 09:36:20;;;;;;;2.00;1.10;;;20.10;58.30;;;;;;5035883;28;20056;-74
2022/05/30 09:39:04;;;;;;;0.60;0.60;;;20.10;60.10;;;;;;5036214;28;20034;-73
2022/05/30 09:41:55;;;;;;;2.50;0.60;;;20.40;59.00;;;;;;5034855;28;20030;-75
2022/05/30 09:44:29;;;;;;;2.60;0.77;;;21.10;59.30;;;;;;5035525;28;20095;-75
2022/05/30 09:47:16;;;;;;;1.23;0.47;;;22.20;55.30;;;;;;5035717;28;20030;-76
2022/05/30 09:49:47;;;;;;;3.30;1.05;;;22.80;52.50;;;;;;5034669;28;20036;-75
2022/05/30 09:52:24;;;;;;;1.40;0.77;;;23.20;53.10;;;;;;5034634;28;20039;-75
2022/05/30 09:54:51;;;;;;;1.60;0.70;;;22.90;48.80;;;;;;5034472;28;20041;-76
2022/05/30 09:57:19;;;;;;;0.88;0.50;;;22.20;50.00;;;;;;5035699;28;20057;-76
2022/05/30 09:59:47;;;;;;;0.97;0.60;;;22.40;49.80;;;;;;5035625;28;20045;-76
2022/05/30 10:02:31;;;;;;;1.88;0.70;;;22.70;49.80;;;;;;5036099;28;20041;-76
2022/05/30 10:05:15;;;;;;;0.52;0.43;;;23.40;47.40;;;;;;5034715;28;20092;-75
2022/05/30 10:07:54;;;;;;;1.02;0.52;;;24.00;48.00;;;;;;5035755;28;20025;-76
2022/05/30 10:10:26;;;;;;;1.52;1.00;;;24.40;46.70;;;;;;5035458;28;20056;-76
2022/05/30 10:13:03;;;;;;;2.45;0.60;;;24.70;44.60;;;;;;5034869;28;20423;-76
2022/05/30 10:15:38;;;;;;;1.23;0.57;;;24.30;45.50;;;;;;5035400;28;20547;-76
2022/05/30 10:18:13;;;;;;;2.55;0.68;;;24.30;44.70;;;;;;5035672;28;20466;-76
2022/05/30 10:21:00;;;;;;;0.70;0.40;;;24.20;45.00;;;;;;5034328;28;20033;-75
2022/05/30 10:30:09;;;;;;;0.40;0.32;;;23.70;46.00;;;;;;5034811;28;20469;-76
2022/05/30 10:33:06;;;;;;;1.20;0.60;;;23.60;45.40;;;;;;5035038;28;20079;-75
2022/05/30 10:35:41;;;;;;;2.28;0.40;;;24.10;44.80;;;;;;5033515;28;20041;-76
2022/05/30 10:38:25;;;;;;;1.05;0.47;;;24.40;44.80;;;;;;5035060;28;20030;-75
2022/05/30 10:41:20;;;;;;;1.17;0.60;;;23.30;44.70;;;;;;5033888;28;20026;-76
2022/05/30 10:44:25;;;;;;;1.08;0.35;;;21.80;48.10;;;;;;5034844;28;20164;-75
2022/05/30 10:47:12;;;;;;;2.58;0.50;;;21.30;49.80;;;;;;5033324;28;20029;-76
2022/05/30 10:49:45;;;;;;;3.55;0.50;;;21.10;49.80;;;;;;5033442;28;20021;-75
2022/05/30 10:52:23;;;;;;;0.50;0.50;;;22.00;49.00;;;;;;5033612;28;20032;-75
2022/05/30 10:55:02;;;;;;;0.45;0.25;;;22.80;48.20;;;;;;5034710;28;20040;-76
2022/05/30 10:57:48;;;;;;;3.00;0.63;;;23.90;47.50;;;;;;5034659;28;20100;-76
2022/05/30 11:00:17;;;;;;;0.77;0.70;;;24.20;45.00;;;;;;5034506;28;20152;-76
2022/05/30 11:02:54;;;;;;;1.50;0.50;;;25.10;43.80;;;;;;5033179;28;20056;-76
2022/05/30 11:05:38;;;;;;;1.27;0.60;;;25.70;43.60;;;;;;5033748;28;20026;-76
2022/05/30 11:08:12;;;;;;;0.80;0.60;;;25.30;43.20;;;;;;5033541;28;20055;-76
2022/05/30 11:10:53;;;;;;;1.38;0.60;;;24.00;43.00;;;;;;5034738;28;20087;-75
2022/05/30 11:13:21;;;;;;;2.35;0.60;;;22.30;46.00;;;;;;5034393;28;20075;-77
2022/05/30 11:15:54;;;;;;;1.02;0.52;;;21.70;48.70;;;;;;5034261;28;20036;-76
2022/05/30 11:18:57;;;;;;;2.15;0.50;;;21.50;50.40;;;;;;5033085;28;20030;-77
2022/05/30 11:21:41;;;;;;;0.70;0.43;;;22.00;47.20;;;;;;5032810;28;20048;-74
2022/05/30 11:24:08;;;;;;;0.85;0.47;;;22.30;47.10;;;;;;5032888;28;20479;-74
2022/05/30 11:26:52;;;;;;;0.63;0.60;;;22.10;48.10;;;;;;5034085;28;20492;-75
2022/05/30 11:29:34;;;;;;;3.78;0.50;;;21.60;47.50;;;;;;5033796;28;20029;-76
2022/05/30 11:32:10;;;;;;;1.17;0.52;;;21.20;49.60;;;;;;5034089;28;20040;-76
2022/05/30 11:34:50;;;;;;;1.75;0.40;;;21.90;48.00;;;;;;5032387;28;20064;-76
2022/05/30 11:37:29;;;;;;;2.05;0.90;;;23.00;47.00;;;;;;5033951;28;20025;-76
2022/05/30 11:40:14;;;;;;;0.50;0.50;;;23.40;46.00;;;;;;5033882;28;20029;-75
2022/05/30 11:43:09;;;;;;;0.40;0.40;;;23.20;46.00;;;;;;5032827;28;20155;-76
2022/05/30 11:45:58;;;;;;;3.15;0.60;;;23.60;44.30;;;;;;5019295;28;20420;-76
2022/05/30 11:48:43;;;;;;;2.05;0.60;;;23.40;43.90;;;;;;5033784;28;20030;-76
2022/05/30 11:51:21;;;;;;;0.98;0.40;;;23.00;46.70;;;;;;5033729;28;20025;-76
2022/05/30 11:54:29;;;;;;;0.80;0.40;;;23.50;47.40;;;;;;5032385;28;20025;-77
2022/05/30 11:57:30;;;;;;;0.63;0.40;;;24.60;42.90;;;;;;5025004;28;20440;-77
2022/05/30 12:00:25;;;;;;;2.40;0.60;;;25.30;41.20;;;;;;5032577;28;20095;-77
2022/05/30 12:03:22;;;;;;;0.57;0.22;;;25.80;40.80;;;;;;5033846;28;20028;-76
2022/05/30 12:06:09;;;;;;;1.50;0.30;;;25.60;40.90;;;;;;5032539;28;20040;-77
2022/05/30 12:08:59;;;;;;;1.48;0.50;;;26.50;39.90;;;;;;5032405;28;20021;-77
2022/05/30 12:12:00;;;;;;;2.35;0.50;;;27.10;39.60;;;;;;5032861;28;20034;-77
2022/05/30 12:14:59;;;;;;;3.33;0.77;;;27.30;39.10;;;;;;5011782;28;20046;-77
2022/05/30 12:23:48;;;;;;;1.88;0.70;;;24.00;43.40;;;;;;5033338;28;20412;-77
2022/05/30 12:26:14;;;;;;;2.47;0.65;;;25.10;42.20;;;;;;5033433;28;20031;-78
2022/05/30 12:28:50;;;;;;;0.80;0.68;;;26.20;40.20;;;;;;5033440;28;20022;-77
2022/05/30 12:31:34;;;;;;;0.77;0.55;;;26.70;40.00;;;;;;5033051;28;20091;-77
2022/05/30 12:33:59;;;;;;;0.50;0.50;;;27.10;39.70;;;;;;5033307;28;20121;-77
2022/05/30 12:36:25;;;;;;;1.17;1.02;;;26.20;39.10;;;;;;5033399;28;20104;-77
2022/05/30 12:38:53;;;;;;;0.95;0.60;;;24.60;40.90;;;;;;5033110;28;20156;-77
2022/05/30 12:41:37;;;;;;;1.70;0.85;;;24.60;42.40;;;;;;5033495;28;20036;-77
2022/05/30 12:44:03;;;;;;;3.25;1.08;;;25.30;40.60;;;;;;5033365;28;20060;-76
2022/05/30 12:46:47;;;;;;;5.40;1.15;;;24.80;40.00;;;;;;5033349;28;20030;-77
2022/05/30 12:49:15;;;;;;;1.20;0.57;;;25.50;41.50;;;;;;5033065;28;20065;-77
2022/05/30 12:52:13;;;;;;;1.05;0.57;;;25.90;40.90;;;;;;5032950;28;20030;-76
2022/05/30 12:54:58;;;;;;;1.02;0.65;;;25.70;39.40;;;;;;5032136;28;20381;-77
2022/05/30 12:57:43;;;;;;;2.17;0.60;;;25.30;41.00;;;;;;5022290;28;20491;-77
2022/05/30 13:00:21;;;;;;;0.70;0.70;;;24.70;40.50;;;;;;5036968;28;20100;-76
2022/05/30 13:03:06;;;;;;;1.90;1.13;;;23.90;42.30;;;;;;5036490;28;20432;-75
2022/05/30 13:05:44;;;;;;;1.85;0.90;;;23.70;43.70;;;;;;5035585;28;20454;-74
2022/05/30 13:08:47;;;;;;;1.13;0.60;;;24.40;42.50;;;;;;5036854;28;20026;-77
2022/05/30 13:11:33;;;;;;;1.92;0.75;;;23.80;43.40;;;;;;5035644;28;20038;-76
2022/05/30 13:14:22;;;;;;;1.83;0.82;;;23.40;43.60;;;;;;5035931;28;20048;-75
2022/05/30 13:16:49;;;;;;;3.53;1.02;;;23.70;43.10;;;;;;5035267;28;20033;-77
2022/05/30 13:19:16;;;;;;;1.55;0.57;;;24.10;44.20;;;;;;5036887;28;20033;-75
2022/05/30 13:21:48;;;;;;;1.40;0.57;;;23.80;44.70;;;;;;5035147;28;20616;-77
2022/05/30 13:24:28;;;;;;;1.67;0.70;;;23.20;45.20;;;;;;5036168;28;20400;-77
2022/05/30 13:26:54;;;;;;;0.73;0.70;;;23.50;46.50;;;;;;5036128;28;20029;-75
2022/05/30 13:29:20;;;;;;;1.15;0.73;;;24.70;43.70;;;;;;5034762;28;20031;-75
2022/05/30 13:31:51;;;;;;;3.80;1.10;;;25.60;42.00;;;;;;5036651;28;20030;-76
2022/05/30 13:34:23;;;;;;;2.92;0.88;;;25.10;41.70;;;;;;5036385;28;20444;-77
2022/05/30 13:36:50;;;;;;;3.70;0.93;;;25.20;41.30;;;;;;5036319;28;20025;-78
2022/05/30 13:39:16;;;;;;;0.50;0.50;;;25.70;41.50;;;;;;5036185;28;20036;-77